Dzhubga, Russia
Current Conditions -  °F | °C
As of 5:30 PM on Saturday 25 Oct 2014 (Local Time) from URKK Reporting Station
Few Clouds Few Clouds  
Wind Chill: 22°   Ceiling: Unl
Heat Index: 34°   Visibility: 6mi
Dew Point: 27°   Wind: 20mph
Humidity: 75%   Direction: 70°ENE
Pressure: 30.33"   Gusts: 29mph
Location:  44.32°N, 38.7°E
Report Text: URKK 251430Z 07009G13MPS 9999 FEW016 01/M03 Q1027 NOSIG RMKQFE767 SC065
Loading
Personal Weather Stations






























Interactive Weather Map
Tropical Storm Tracking
New forecast layout! Learn more

10-Day Weather Forecast

Advertisements
Track Severe Weather on mobile